Time;durP1;ratioP1;P1;durP2;ratioP2;P2;SDS_P1;SDS_P2;PMS_P1;PMS_P2;Temp;Humidity;BMP_temperature;BMP_pressure;BME280_temperature;BME280_humidity;BME280_pressure;Samples;Min_cycle;Max_cycle;Signal;HPM_P1;HPM_P2
2024/04/16 00:01:04;;;;;;;;;;;;;;;21.07;38.66;94038.31;4532325;26;19928;-58
2024/04/16 00:03:07;;;;;;;;;;;;;;;20.99;38.25;94030.72;4529103;26;19928;-60
2024/04/16 00:05:09;;;;;;;;;;;;;;;20.90;38.40;94037.50;4530954;26;19939;-58
2024/04/16 00:07:12;;;;;;;;;;;;;;;20.89;38.50;94030.53;4525857;26;19936;-59
2024/04/16 00:09:14;;;;;;;;;;;;;;;20.83;38.71;94035.78;4532739;26;19928;-60
2024/04/16 00:11:16;;;;;;;;;;;;;;;20.85;37.93;94039.00;4528598;26;19961;-60
2024/04/16 00:13:18;;;;;;;;;;;;;;;20.88;38.18;94036.91;4525701;26;19952;-60
2024/04/16 00:15:20;;;;;;;;;;;;;;;20.82;37.75;94031.50;4534026;26;20351;-58
2024/04/16 00:17:24;;;;;;;;;;;;;;;20.73;38.53;94024.94;4515698;26;19928;-58
2024/04/16 00:19:26;;;;;;;;;;;;;;;20.66;38.62;94029.59;4516622;26;20000;-59
2024/04/16 00:21:28;;;;;;;;;;;;;;;20.68;38.12;94027.50;4522830;26;19999;-60
2024/04/16 00:23:30;;;;;;;;;;;;;;;20.67;37.82;94017.91;4534172;26;19928;-59
2024/04/16 00:25:31;;;;;;;;;;;;;;;20.75;38.20;94019.38;4527999;26;20308;-59
2024/04/16 00:27:33;;;;;;;;;;;;;;;20.81;37.71;94027.22;4534349;26;19928;-61
2024/04/16 00:29:35;;;;;;;;;;;;;;;20.82;37.66;94028.84;4534849;26;20327;-61
2024/04/16 00:31:39;;;;;;;;;;;;;;;20.79;37.73;94036.50;4536505;26;20359;-59
2024/04/16 00:33:42;;;;;;;;;;;;;;;20.51;39.86;94040.72;4533435;26;19960;-60
2024/04/16 00:35:45;;;;;;;;;;;;;;;20.00;41.74;94039.69;4528068;26;20055;-61
2024/04/16 00:37:47;;;;;;;;;;;;;;;19.27;43.24;94048.88;4532764;26;19940;-60
2024/04/16 00:39:49;;;;;;;;;;;;;;;19.10;43.75;94051.41;4530203;26;20317;-60
2024/04/16 00:41:50;;;;;;;;;;;;;;;19.03;43.79;94044.34;4531479;26;20015;-59
2024/04/16 00:43:52;;;;;;;;;;;;;;;18.98;43.81;94049.53;4532046;26;20332;-60
2024/04/16 00:45:54;;;;;;;;;;;;;;;18.93;43.65;94057.38;4530614;26;19935;-60
2024/04/16 00:47:56;;;;;;;;;;;;;;;18.93;43.89;94052.06;4526227;26;19955;-60
2024/04/16 00:49:58;;;;;;;;;;;;;;;18.87;43.72;94057.47;4530880;26;19939;-59
2024/04/16 00:52:00;;;;;;;;;;;;;;;18.80;43.85;94047.75;4553161;26;20036;-59
2024/04/16 00:54:02;;;;;;;;;;;;;;;18.89;43.53;94044.78;4511890;26;20044;-58
2024/04/16 00:56:07;;;;;;;;;;;;;;;18.91;43.52;94042.72;4528986;26;20024;-61
2024/04/16 00:58:09;;;;;;;;;;;;;;;18.93;43.28;94041.44;4528836;26;20367;-58
2024/04/16 01:00:11;;;;;;;;;;;;;;;19.15;41.57;94043.56;4530764;26;20394;-60
2024/04/16 01:02:12;;;;;;;;;;;;;;;19.32;40.95;94049.84;4524680;26;20419;-58
2024/04/16 01:04:14;;;;;;;;;;;;;;;19.33;41.88;94053.28;4536757;26;19927;-60
2024/04/16 01:06:16;;;;;;;;;;;;;;;19.30;40.73;94045.81;4512553;26;19936;-58
2024/04/16 01:08:18;;;;;;;;;;;;;;;19.42;39.67;94041.28;4532560;26;20026;-60
2024/04/16 01:10:20;;;;;;;;;;;;;;;19.63;39.11;94046.03;4526363;26;19935;-60
2024/04/16 01:12:22;;;;;;;;;;;;;;;19.62;39.95;94052.41;4524093;26;19935;-61
2024/04/16 01:14:24;;;;;;;;;;;;;;;19.40;41.15;94054.81;4525810;26;19928;-59
2024/04/16 01:16:26;;;;;;;;;;;;;;;19.43;41.43;94057.00;4519483;26;20435;-60
2024/04/16 01:18:28;;;;;;;;;;;;;;;19.38;40.92;94054.25;4530751;26;19995;-59
2024/04/16 01:20:30;;;;;;;;;;;;;;;19.55;40.50;94053.53;4533261;26;20346;-60
2024/04/16 01:22:32;;;;;;;;;;;;;;;19.70;40.21;94061.09;4530724;26;19966;-61
2024/04/16 01:24:34;;;;;;;;;;;;;;;19.87;39.59;94069.97;4534521;26;19954;-60
2024/04/16 01:26:36;;;;;;;;;;;;;;;20.05;39.41;94069.88;4543380;26;20061;-58
2024/04/16 01:28:37;;;;;;;;;;;;;;;20.22;38.80;94074.47;4534307;26;19928;-59
2024/04/16 01:30:39;;;;;;;;;;;;;;;20.34;39.27;94069.13;4531102;26;20335;-59
2024/04/16 01:32:41;;;;;;;;;;;;;;;20.43;39.41;94076.50;4510933;26;20288;-60
2024/04/16 01:34:43;;;;;;;;;;;;;;;20.45;39.50;94073.59;4513606;26;20001;-60
2024/04/16 01:36:45;;;;;;;;;;;;;;;20.46;39.47;94076.03;4533263;26;20031;-63
2024/04/16 01:38:47;;;;;;;;;;;;;;;20.49;39.72;94068.63;4531147;26;19934;-60
2024/04/16 01:40:49;;;;;;;;;;;;;;;20.35;40.07;94063.56;4529605;26;20591;-59
2024/04/16 01:42:51;;;;;;;;;;;;;;;20.23;40.22;94058.25;4515163;26;20491;-60
2024/04/16 01:44:55;;;;;;;;;;;;;;;20.02;40.83;94059.69;4522794;26;19965;-61
2024/04/16 01:46:57;;;;;;;;;;;;;;;20.09;40.77;94062.25;4530294;26;19928;-61
2024/04/16 01:48:59;;;;;;;;;;;;;;;20.14;40.29;94058.88;4525718;26;19956;-60
2024/04/16 01:51:03;;;;;;;;;;;;;;;20.20;40.31;94044.66;4515400;26;20000;-61
2024/04/16 01:53:04;;;;;;;;;;;;;;;20.04;40.30;94056.78;4526103;26;19980;-60
2024/04/16 01:55:06;;;;;;;;;;;;;;;19.95;40.82;94040.41;4520164;26;19935;-59
2024/04/16 01:57:08;;;;;;;;;;;;;;;19.88;40.72;94041.56;4523178;26;19994;-60
2024/04/16 01:59:10;;;;;;;;;;;;;;;19.83;40.82;94042.25;4536760;26;19932;-59
2024/04/16 02:01:12;;;;;;;;;;;;;;;19.74;40.80;94038.34;4527312;26;20640;-59
2024/04/16 02:03:14;;;;;;;;;;;;;;;19.50;41.25;94037.50;4540328;26;19927;-60
2024/04/16 02:05:16;;;;;;;;;;;;;;;19.59;41.30;94034.25;4532832;26;19932;-61
2024/04/16 02:07:18;;;;;;;;;;;;;;;19.63;40.86;94035.41;4544950;26;19947;-59
2024/04/16 02:09:19;;;;;;;;;;;;;;;19.67;41.04;94033.09;4529736;26;19928;-58
2024/04/16 02:11:21;;;;;;;;;;;;;;;19.75;41.06;94037.31;4534027;26;20075;-60
2024/04/16 02:13:26;;;;;;;;;;;;;;;19.82;41.15;94036.13;4528039;26;19943;-60
2024/04/16 02:15:28;;;;;;;;;;;;;;;19.91;41.60;94031.25;4520859;26;20253;-60
2024/04/16 02:17:29;;;;;;;;;;;;;;;19.61;41.62;94037.47;4529333;26;19951;-59
2024/04/16 02:19:31;;;;;;;;;;;;;;;19.40;42.02;94033.56;4531048;26;19935;-59
2024/04/16 02:21:33;;;;;;;;;;;;;;;19.23;42.37;94037.94;4533368;26;20043;-60
2024/04/16 02:23:35;;;;;;;;;;;;;;;19.05;42.78;94038.81;4529997;26;20248;-59
2024/04/16 02:25:37;;;;;;;;;;;;;;;18.96;43.02;94035.66;4518651;26;20311;-59
2024/04/16 02:27:38;;;;;;;;;;;;;;;18.99;42.94;94027.28;4532268;26;20372;-59
2024/04/16 02:29:40;;;;;;;;;;;;;;;19.11;43.14;94029.13;4530995;26;19934;-60
2024/04/16 02:31:42;;;;;;;;;;;;;;;19.23;42.88;94028.13;4529634;26;20445;-59
2024/04/16 02:33:44;;;;;;;;;;;;;;;19.36;42.86;94029.75;4525787;26;19942;-59
2024/04/16 02:35:46;;;;;;;;;;;;;;;19.46;42.95;94029.16;4537721;26;20392;-60
2024/04/16 02:37:48;;;;;;;;;;;;;;;19.52;42.68;94025.59;4528930;26;19928;-58
2024/04/16 02:39:50;;;;;;;;;;;;;;;19.59;42.59;94025.47;4524567;26;20292;-59
2024/04/16 02:41:53;;;;;;;;;;;;;;;19.63;42.58;94024.78;4525660;26;20446;-59
2024/04/16 02:43:56;;;;;;;;;;;;;;;19.72;42.79;94035.09;4522963;26;19982;-59
2024/04/16 02:45:57;;;;;;;;;;;;;;;19.71;42.29;94025.53;4531180;26;20210;-58
2024/04/16 02:47:59;;;;;;;;;;;;;;;19.68;41.88;94032.09;4523267;26;19928;-59
2024/04/16 02:50:01;;;;;;;;;;;;;;;19.31;42.74;94036.78;4532168;26;19928;-57
2024/04/16 02:52:03;;;;;;;;;;;;;;;19.20;42.82;94036.53;4519144;26;20000;-59
2024/04/16 02:54:05;;;;;;;;;;;;;;;19.13;43.72;94040.34;4531181;26;19935;-60
2024/04/16 02:56:07;;;;;;;;;;;;;;;19.08;43.06;94033.06;4543113;26;19935;-60
2024/04/16 02:58:09;;;;;;;;;;;;;;;19.13;43.24;94024.41;4531384;26;20319;-60
2024/04/16 03:00:11;;;;;;;;;;;;;;;19.17;43.48;94026.38;4530210;26;19939;-59
2024/04/16 03:02:12;;;;;;;;;;;;;;;19.26;43.58;94031.34;4512876;26;20013;-61
2024/04/16 03:04:15;;;;;;;;;;;;;;;19.31;43.38;94015.53;4530428;26;19928;-59
2024/04/16 03:06:16;;;;;;;;;;;;;;;19.34;43.42;94009.78;4536713;26;19928;-62
2024/04/16 03:08:18;;;;;;;;;;;;;;;19.34;43.15;94013.25;4524389;26;19927;-59
2024/04/16 03:10:20;;;;;;;;;;;;;;;19.34;43.26;94010.59;4523652;26;19983;-61
2024/04/16 03:12:22;;;;;;;;;;;;;;;19.35;43.73;94016.69;4519473;26;19928;-59
2024/04/16 03:14:24;;;;;;;;;;;;;;;19.34;43.68;94013.25;4521074;26;19940;-59
2024/04/16 03:16:29;;;;;;;;;;;;;;;19.31;43.72;94007.56;4524956;26;20270;-59
2024/04/16 03:18:31;;;;;;;;;;;;;;;19.32;43.64;94009.19;4533030;26;19928;-60
2024/04/16 03:20:33;;;;;;;;;;;;;;;19.31;44.11;94002.25;4535022;26;20132;-59
2024/04/16 03:22:34;;;;;;;;;;;;;;;19.29;44.24;93996.38;4534039;26;19928;-59
2024/04/16 03:24:36;;;;;;;;;;;;;;;19.28;44.06;93992.09;4535973;26;20292;-61
2024/04/16 03:26:38;;;;;;;;;;;;;;;19.26;44.14;93999.50;4511850;26;19967;-60
2024/04/16 03:28:40;;;;;;;;;;;;;;;19.24;44.32;93997.84;4535249;26;19935;-60
2024/04/16 03:30:42;;;;;;;;;;;;;;;19.24;44.23;93999.72;4534713;26;19971;-60
2024/04/16 03:32:43;;;;;;;;;;;;;;;19.24;44.13;94002.38;4531907;26;19932;-59
2024/04/16 03:34:45;;;;;;;;;;;;;;;19.14;44.36;93994.16;4517284;26;20102;-59
2024/04/16 03:36:47;;;;;;;;;;;;;;;19.15;44.76;94001.91;4524927;26;20351;-60
2024/04/16 03:38:49;;;;;;;;;;;;;;;19.16;44.51;94013.31;4540490;26;20322;-58
2024/04/16 03:40:57;;;;;;;;;;;;;;;19.15;44.70;94017.03;4535703;26;20332;-60
2024/04/16 03:42:59;;;;;;;;;;;;;;;19.17;45.08;94007.78;4527029;26;20482;-61
2024/04/16 03:45:01;;;;;;;;;;;;;;;19.18;44.75;94006.75;4523758;26;19928;-59
2024/04/16 03:47:03;;;;;;;;;;;;;;;19.23;44.46;94012.19;4532028;26;19964;-59
2024/04/16 03:49:05;;;;;;;;;;;;;;;19.22;44.49;94005.25;4532113;26;19932;-60
2024/04/16 03:51:06;;;;;;;;;;;;;;;19.26;44.35;94010.13;4532692;26;20307;-59
2024/04/16 03:53:08;;;;;;;;;;;;;;;19.22;44.67;94007.91;4528220;26;19943;-60
2024/04/16 03:55:10;;;;;;;;;;;;;;;19.09;45.29;94012.63;4529489;26;19928;-60
2024/04/16 03:57:12;;;;;;;;;;;;;;;18.80;45.97;94009.81;4534462;26;19936;-61
2024/04/16 03:59:37;;;;;;;;;;;;;;;18.62;46.69;94007.97;4522550;26;19936;-60
2024/04/16 04:01:38;;;;;;;;;;;;;;;18.47;46.60;93995.09;4532577;26;19973;-59
2024/04/16 04:03:42;;;;;;;;;;;;;;;18.55;46.62;94004.59;4520147;26;19928;-61
2024/04/16 04:05:44;;;;;;;;;;;;;;;18.30;47.20;94010.81;4528437;26;19944;-61
2024/04/16 04:07:47;;;;;;;;;;;;;;;18.15;47.01;94010.41;4542798;26;19936;-61
2024/04/16 04:09:49;;;;;;;;;;;;;;;18.11;47.31;94019.84;4517535;26;19929;-59
2024/04/16 04:11:51;;;;;;;;;;;;;;;18.26;46.94;94014.94;4528494;26;20052;-61
2024/04/16 04:13:53;;;;;;;;;;;;;;;18.39;47.38;94017.47;4535514;26;19955;-60
2024/04/16 04:15:56;;;;;;;;;;;;;;;18.57;47.29;94018.44;4526438;26;19928;-62
2024/04/16 04:17:58;;;;;;;;;;;;;;;18.68;46.83;94017.69;4517113;26;19932;-60
2024/04/16 04:20:00;;;;;;;;;;;;;;;18.73;47.46;94020.44;4524590;26;19929;-60
2024/04/16 04:22:02;;;;;;;;;;;;;;;18.82;47.37;94019.16;4531913;26;20315;-62
2024/04/16 04:24:04;;;;;;;;;;;;;;;18.89;47.12;94018.25;4534930;26;20071;-60
2024/04/16 04:26:20;;;;;;;;;;;;;;;18.86;46.62;94018.69;4531866;26;19981;-59
2024/04/16 04:28:22;;;;;;;;;;;;;;;18.80;46.27;94021.22;4533206;26;19934;-63
2024/04/16 04:30:24;;;;;;;;;;;;;;;18.48;46.14;94019.81;4513466;26;19939;-62
2024/04/16 04:32:26;;;;;;;;;;;;;;;18.33;46.55;94023.66;4545916;26;20340;-62
2024/04/16 04:34:28;;;;;;;;;;;;;;;18.32;46.77;94015.91;4533549;26;19936;-60
2024/04/16 04:36:30;;;;;;;;;;;;;;;18.42;46.88;94027.59;4522832;26;19996;-59
2024/04/16 04:38:32;;;;;;;;;;;;;;;18.57;47.05;94039.69;4519661;26;19948;-60
2024/04/16 04:40:35;;;;;;;;;;;;;;;18.70;47.09;94044.00;4522143;26;20014;-62
2024/04/16 04:42:37;;;;;;;;;;;;;;;18.82;47.02;94050.16;4514415;26;20059;-60
2024/04/16 04:44:38;;;;;;;;;;;;;;;18.92;46.01;94054.94;4536089;26;20414;-59
2024/04/16 04:46:40;;;;;;;;;;;;;;;18.99;46.23;94055.63;4519693;26;20423;-59
2024/04/16 04:48:44;;;;;;;;;;;;;;;19.07;45.59;94065.13;4529838;26;19942;-60
2024/04/16 04:50:46;;;;;;;;;;;;;;;19.14;45.41;94058.66;4532571;26;20000;-59
2024/04/16 04:52:47;;;;;;;;;;;;;;;19.14;45.61;94044.59;4534213;26;20364;-60
2024/04/16 04:54:51;;;;;;;;;;;;;;;19.17;45.46;94050.28;4517217;26;20445;-59
2024/04/16 04:56:53;;;;;;;;;;;;;;;19.20;45.17;94055.13;4527571;26;19975;-61
2024/04/16 04:58:55;;;;;;;;;;;;;;;19.31;44.45;94055.38;4532892;26;19939;-61
2024/04/16 05:00:57;;;;;;;;;;;;;;;19.34;45.16;94026.50;4533965;26;19951;-60
2024/04/16 05:02:58;;;;;;;;;;;;;;;19.28;44.87;94034.59;4524159;26;19939;-60
2024/04/16 05:05:05;;;;;;;;;;;;;;;19.29;44.70;94052.13;4531683;26;19940;-60
2024/04/16 05:07:06;;;;;;;;;;;;;;;19.24;44.94;94042.19;4532263;26;20347;-61
2024/04/16 05:09:08;;;;;;;;;;;;;;;19.19;44.99;94037.56;4521231;26;19939;-60
2024/04/16 05:11:10;;;;;;;;;;;;;;;19.00;44.92;94038.69;4524277;26;20340;-60
2024/04/16 05:13:13;;;;;;;;;;;;;;;19.10;45.13;94036.31;4528046;26;20569;-59
2024/04/16 05:15:14;;;;;;;;;;;;;;;19.19;44.69;94032.28;4534409;26;19961;-58
2024/04/16 05:17:16;;;;;;;;;;;;;;;19.30;44.93;94024.56;4521243;26;19934;-59
2024/04/16 05:19:18;;;;;;;;;;;;;;;19.37;44.51;94014.63;4525859;26;20454;-60
2024/04/16 05:21:20;;;;;;;;;;;;;;;19.46;44.83;94023.84;4534933;26;19962;-60
2024/04/16 05:23:21;;;;;;;;;;;;;;;19.59;44.77;94015.66;4518678;26;19928;-60
2024/04/16 05:25:23;;;;;;;;;;;;;;;19.54;43.99;94020.06;4513005;26;19994;-60
2024/04/16 05:27:25;;;;;;;;;;;;;;;19.55;44.21;94016.34;4534081;26;19995;-59
2024/04/16 05:29:27;;;;;;;;;;;;;;;19.55;44.06;94017.19;4518385;26;19928;-62
2024/04/16 05:31:29;;;;;;;;;;;;;;;19.62;44.22;94015.22;4509816;26;19935;-62
2024/04/16 05:33:31;;;;;;;;;;;;;;;19.62;44.17;94017.88;4532150;26;20403;-60
2024/04/16 05:35:32;;;;;;;;;;;;;;;19.68;44.81;94013.47;4524909;26;20264;-59
2024/04/16 05:37:34;;;;;;;;;;;;;;;19.77;44.57;94013.97;4531722;26;20072;-60
2024/04/16 05:39:36;;;;;;;;;;;;;;;19.87;44.79;94024.00;4526133;26;19996;-59
2024/04/16 05:41:38;;;;;;;;;;;;;;;19.95;43.67;94032.41;4519666;26;19931;-60
2024/04/16 05:43:40;;;;;;;;;;;;;;;20.07;43.95;94026.28;4532012;26;20035;-59
2024/04/16 05:45:43;;;;;;;;;;;;;;;20.13;43.77;94042.09;4525221;26;20429;-59
2024/04/16 05:47:44;;;;;;;;;;;;;;;20.21;42.91;94048.91;4531531;26;20537;-62
2024/04/16 05:49:46;;;;;;;;;;;;;;;20.18;42.44;94041.41;4533873;26;19939;-60
2024/04/16 05:51:48;;;;;;;;;;;;;;;20.18;42.60;94042.22;4527734;26;19929;-60
2024/04/16 05:53:50;;;;;;;;;;;;;;;20.24;42.76;94027.97;4527124;26;19936;-59
2024/04/16 05:55:52;;;;;;;;;;;;;;;20.32;43.08;94042.75;4520386;26;20347;-59
2024/04/16 05:57:54;;;;;;;;;;;;;;;20.09;42.09;94033.00;4500720;26;19962;-59
2024/04/16 05:59:55;;;;;;;;;;;;;;;20.10;42.02;94026.63;4537765;26;19928;-60
2024/04/16 06:02:00;;;;;;;;;;;;;;;20.14;42.75;94022.44;4530205;26;19927;-59
2024/04/16 06:04:02;;;;;;;;;;;;;;;20.19;42.94;94024.41;4526417;26;19980;-60
2024/04/16 06:06:04;;;;;;;;;;;;;;;20.30;42.85;94017.44;4529623;26;19936;-59
2024/04/16 06:08:06;;;;;;;;;;;;;;;20.40;42.31;94012.31;4527813;26;19935;-60
2024/04/16 06:10:08;;;;;;;;;;;;;;;20.43;40.94;94018.00;4532457;26;19960;-59
2024/04/16 06:12:10;;;;;;;;;;;;;;;20.39;40.09;94016.00;4531941;26;19932;-59
2024/04/16 06:14:12;;;;;;;;;;;;;;;20.21;40.23;94014.34;4515983;26;20314;-60
2024/04/16 06:16:14;;;;;;;;;;;;;;;20.25;41.17;94012.81;4525495;26;19936;-60
2024/04/16 06:18:16;;;;;;;;;;;;;;;20.39;41.01;94011.53;4515829;26;20498;-59
2024/04/16 06:20:18;;;;;;;;;;;;;;;20.54;41.55;93996.88;4529358;26;20251;-60
2024/04/16 06:22:20;;;;;;;;;;;;;;;20.68;41.08;93998.25;4532393;26;19928;-61
2024/04/16 06:24:21;;;;;;;;;;;;;;;20.80;39.57;93993.69;4519217;26;20007;-61
2024/04/16 06:26:23;;;;;;;;;;;;;;;20.90;39.27;93990.38;4532036;26;20461;-60
2024/04/16 06:28:25;;;;;;;;;;;;;;;20.95;38.70;93997.63;4545142;26;20019;-62
2024/04/16 06:30:27;;;;;;;;;;;;;;;20.77;37.80;93990.69;4527497;26;19936;-64
2024/04/16 06:32:28;;;;;;;;;;;;;;;20.66;37.12;93989.69;4526371;26;19928;-66
2024/04/16 06:34:30;;;;;;;;;;;;;;;20.63;37.70;93982.19;4530860;26;20252;-61
2024/04/16 06:36:32;;;;;;;;;;;;;;;20.60;37.90;93982.66;4533376;26;19964;-59
2024/04/16 06:38:34;;;;;;;;;;;;;;;20.70;38.49;93974.84;4530571;26;19938;-62
2024/04/16 06:40:36;;;;;;;;;;;;;;;20.83;38.18;93979.88;4534206;26;20317;-59
2024/04/16 06:42:38;;;;;;;;;;;;;;;20.98;38.69;93970.53;4525974;26;19948;-61
2024/04/16 06:44:39;;;;;;;;;;;;;;;21.08;38.90;93960.06;4521492;26;20625;-59
2024/04/16 06:46:41;;;;;;;;;;;;;;;21.16;37.05;93964.97;4528938;26;19966;-61
2024/04/16 06:48:43;;;;;;;;;;;;;;;21.20;36.66;93958.09;4532866;26;20722;-60
2024/04/16 06:50:56;;;;;;;;;;;;;;;20.99;36.79;93950.84;4533643;26;19938;-57
2024/04/16 06:52:58;;;;;;;;;;;;;;;20.99;37.15;93961.50;4519432;26;20911;-60
2024/04/16 06:55:00;;;;;;;;;;;;;;;21.08;36.82;93957.41;4525230;26;19946;-59
2024/04/16 06:57:01;;;;;;;;;;;;;;;21.20;37.27;93952.78;4532767;26;19940;-61
2024/04/16 06:59:03;;;;;;;;;;;;;;;21.27;36.97;93957.94;4532146;26;20346;-58
2024/04/16 07:01:05;;;;;;;;;;;;;;;21.38;36.92;93958.88;4538498;26;20046;-60
2024/04/16 07:03:07;;;;;;;;;;;;;;;21.49;36.87;93955.38;4531378;26;20061;-59
2024/04/16 07:05:10;;;;;;;;;;;;;;;21.57;37.45;93952.28;4516375;26;19964;-62
2024/04/16 07:07:11;;;;;;;;;;;;;;;21.64;37.14;93952.13;4520607;26;19935;-60
2024/04/16 07:09:13;;;;;;;;;;;;;;;21.71;36.85;93943.94;4511765;26;19996;-61
2024/04/16 07:11:15;;;;;;;;;;;;;;;21.76;37.06;93936.00;4529111;26;20418;-60
2024/04/16 07:13:17;;;;;;;;;;;;;;;21.80;36.77;93945.13;4529962;26;20012;-62
2024/04/16 07:15:20;;;;;;;;;;;;;;;21.82;36.99;93946.47;4521820;26;19931;-59
2024/04/16 07:17:22;;;;;;;;;;;;;;;21.82;37.06;93937.69;4518491;26;20403;-60
2024/04/16 07:19:24;;;;;;;;;;;;;;;21.85;37.61;93935.34;4517599;26;19943;-62
2024/04/16 07:21:26;;;;;;;;;;;;;;;21.92;37.02;93929.81;4530771;26;20366;-59
2024/04/16 07:23:28;;;;;;;;;;;;;;;21.99;36.98;93935.75;4532716;26;20398;-61
2024/04/16 07:25:30;;;;;;;;;;;;;;;22.12;37.30;93925.78;4524255;26;19980;-59
2024/04/16 07:27:32;;;;;;;;;;;;;;;22.20;36.30;93936.81;4529293;26;20239;-61
2024/04/16 07:29:34;;;;;;;;;;;;;;;22.27;36.05;93929.44;4528914;26;19997;-61
2024/04/16 07:31:36;;;;;;;;;;;;;;;22.33;36.46;93935.66;4524124;26;20045;-59
2024/04/16 07:33:48;;;;;;;;;;;;;;;22.31;37.00;93923.63;4527578;26;20683;-60
2024/04/16 07:35:52;;;;;;;;;;;;;;;22.20;37.12;93911.97;4532835;26;19932;-58
2024/04/16 07:37:54;;;;;;;;;;;;;;;22.16;37.55;93911.69;4534903;26;20014;-61
2024/04/16 07:39:56;;;;;;;;;;;;;;;22.11;37.89;93910.81;4529021;26;20002;-60
2024/04/16 07:41:57;;;;;;;;;;;;;;;22.03;37.03;93912.88;4529835;26;19996;-60
2024/04/16 07:43:59;;;;;;;;;;;;;;;22.07;37.56;93914.00;4533240;26;20239;-58
2024/04/16 07:46:01;;;;;;;;;;;;;;;22.05;38.14;93913.44;4543934;26;20046;-61
2024/04/16 07:48:03;;;;;;;;;;;;;;;21.99;37.67;93922.44;4525401;26;19928;-60
2024/04/16 07:50:06;;;;;;;;;;;;;;;22.03;38.18;93926.22;4526004;26;19940;-59
2024/04/16 07:52:08;;;;;;;;;;;;;;;22.20;38.19;93933.31;4528793;26;19988;-60
2024/04/16 07:54:10;;;;;;;;;;;;;;;22.42;37.52;93939.47;4532919;26;20712;-58
2024/04/16 07:56:12;;;;;;;;;;;;;;;22.59;37.77;93936.72;4530269;26;19940;-61
2024/04/16 07:58:17;;;;;;;;;;;;;;;22.60;36.39;93932.97;4530706;26;20039;-60
2024/04/16 08:00:19;;;;;;;;;;;;;;;22.60;36.32;93926.84;4512738;26;19936;-59
2024/04/16 08:02:21;;;;;;;;;;;;;;;22.53;36.61;93937.72;4524371;26;20003;-57
2024/04/16 08:04:26;;;;;;;;;;;;;;;22.68;36.38;93927.19;4533832;26;19944;-60
2024/04/16 08:06:28;;;;;;;;;;;;;;;22.61;36.54;93913.25;4533637;26;19928;-61
2024/04/16 08:08:29;;;;;;;;;;;;;;;22.57;36.33;93908.66;4530715;26;19936;-59
2024/04/16 08:10:36;;;;;;;;;;;;;;;22.31;36.00;93900.41;4525748;26;19972;-59
2024/04/16 08:12:38;;;;;;;;;;;;;;;22.11;36.13;93900.16;4530586;26;19976;-60
2024/04/16 08:14:41;;;;;;;;;;;;;;;22.27;37.10;93909.97;4527585;26;19962;-59
2024/04/16 08:16:43;;;;;;;;;;;;;;;22.44;37.33;93909.88;4522373;26;20284;-61
2024/04/16 08:18:46;;;;;;;;;;;;;;;22.63;36.79;93907.66;4540381;26;19928;-59
2024/04/16 08:20:48;;;;;;;;;;;;;;;22.86;36.47;93912.66;4525679;26;20020;-60
2024/04/16 08:22:50;;;;;;;;;;;;;;;23.12;36.27;93909.41;4534026;26;19943;-61
2024/04/16 08:24:52;;;;;;;;;;;;;;;23.30;35.94;93903.66;4524554;26;19928;-60
2024/04/16 08:26:54;;;;;;;;;;;;;;;23.42;36.57;93892.78;4529703;26;20502;-61
2024/04/16 08:28:56;;;;;;;;;;;;;;;23.47;36.88;93887.47;4523889;26;19936;-60
2024/04/16 08:30:58;;;;;;;;;;;;;;;23.63;36.76;93888.34;4533492;26;20051;-60
2024/04/16 08:33:00;;;;;;;;;;;;;;;23.67;35.76;93884.09;4531975;26;19928;-60
2024/04/16 08:35:02;;;;;;;;;;;;;;;23.72;35.89;93894.78;4532820;26;20332;-60
2024/04/16 08:37:04;;;;;;;;;;;;;;;23.74;36.05;93890.00;4527691;26;19928;-60
2024/04/16 08:39:06;;;;;;;;;;;;;;;23.74;34.59;93886.53;4521955;26;19935;-58
2024/04/16 08:41:08;;;;;;;;;;;;;;;23.27;33.87;93898.81;4534029;26;19928;-61
2024/04/16 08:43:10;;;;;;;;;;;;;;;23.29;34.62;93900.16;4519057;26;20397;-60
2024/04/16 08:45:12;;;;;;;;;;;;;;;23.42;34.47;93898.91;4544600;26;19943;-61
2024/04/16 08:47:14;;;;;;;;;;;;;;;23.62;34.35;93900.91;4526788;26;19943;-61
2024/04/16 08:49:17;;;;;;;;;;;;;;;23.80;34.37;93885.50;4526282;26;19928;-61
2024/04/16 08:51:19;;;;;;;;;;;;;;;23.91;33.77;93879.94;4546849;26;19934;-58
2024/04/16 08:53:21;;;;;;;;;;;;;;;23.93;33.59;93890.38;4534876;26;19956;-62
2024/04/16 08:55:23;;;;;;;;;;;;;;;24.01;33.58;93892.56;4539083;26;19952;-60
2024/04/16 08:57:26;;;;;;;;;;;;;;;24.11;34.43;93889.09;4528895;26;19942;-61
2024/04/16 08:59:27;;;;;;;;;;;;;;;23.46;33.41;93883.16;4534677;26;19927;-58
2024/04/16 09:01:33;;;;;;;;;;;;;;;23.27;33.61;93894.31;4522703;26;19928;-64
2024/04/16 09:03:36;;;;;;;;;;;;;;;23.27;33.66;93888.13;4523619;26;20610;-62
2024/04/16 09:05:37;;;;;;;;;;;;;;;23.40;33.59;93884.19;4527081;26;19936;-63
2024/04/16 09:07:41;;;;;;;;;;;;;;;23.49;33.62;93877.31;4501715;26;20622;-59
2024/04/16 09:09:43;;;;;;;;;;;;;;;23.37;33.80;93872.16;4527431;26;20335;-62
2024/04/16 09:11:45;;;;;;;;;;;;;;;23.48;32.75;93878.38;4528215;26;20391;-60
2024/04/16 09:13:48;;;;;;;;;;;;;;;23.59;32.74;93880.03;4535256;26;19928;-61
2024/04/16 09:15:49;;;;;;;;;;;;;;;23.70;33.48;93881.72;4514785;26;19929;-60
2024/04/16 09:17:52;;;;;;;;;;;;;;;23.83;33.73;93880.47;4528220;26;20729;-60
2024/04/16 09:20:00;;;;;;;;;;;;;;;23.92;32.97;93873.53;4531445;26;20272;-61
2024/04/16 09:22:02;;;;;;;;;;;;;;;24.05;32.04;93866.88;4530480;26;19939;-60
2024/04/16 09:24:08;;;;;;;;;;;;;;;24.04;31.88;93856.44;4533003;26;19928;-60
2024/04/16 09:26:15;;;;;;;;;;;;;;;23.96;32.22;93855.06;4534951;26;19939;-60
2024/04/16 09:28:17;;;;;;;;;;;;;;;24.06;32.51;93851.63;4533607;26;20504;-59
2024/04/16 09:30:21;;;;;;;;;;;;;;;24.11;31.91;93847.09;4539932;26;19988;-59
2024/04/16 09:32:23;;;;;;;;;;;;;;;23.95;32.08;93832.06;4532197;26;19939;-61
2024/04/16 09:34:25;;;;;;;;;;;;;;;24.10;32.34;93837.47;4539453;26;19948;-59
2024/04/16 09:36:27;;;;;;;;;;;;;;;24.31;32.79;93843.66;4500238;26;19928;-60
2024/04/16 09:38:28;;;;;;;;;;;;;;;24.54;32.85;93846.91;4526539;26;19940;-61
2024/04/16 09:40:30;;;;;;;;;;;;;;;24.73;32.56;93836.47;4524303;26;19928;-61
2024/04/16 09:42:33;;;;;;;;;;;;;;;24.86;31.18;93819.06;4533604;26;19928;-61
2024/04/16 09:44:34;;;;;;;;;;;;;;;24.96;30.62;93815.59;4527379;26;20303;-62
2024/04/16 09:46:36;;;;;;;;;;;;;;;25.06;31.03;93821.72;4529536;26;19936;-60
2024/04/16 09:48:39;;;;;;;;;;;;;;;25.10;31.72;93813.94;4514234;26;19928;-59
2024/04/16 09:50:41;;;;;;;;;;;;;;;25.17;31.58;93809.13;4526519;26;19996;-62
2024/04/16 09:52:56;;;;;;;;;;;;;;;25.27;30.93;93811.00;4520704;26;20197;-63
2024/04/16 09:54:58;;;;;;;;;;;;;;;25.31;30.57;93812.84;4535532;26;20365;-61
2024/04/16 09:57:01;;;;;;;;;;;;;;;25.38;30.82;93807.19;4533213;26;20480;-59
2024/04/16 09:59:03;;;;;;;;;;;;;;;25.41;31.17;93806.66;4534204;26;19940;-62
2024/04/16 10:01:05;;;;;;;;;;;;;;;25.42;31.22;93802.09;4532535;26;19934;-60
2024/04/16 10:03:07;;;;;;;;;;;;;;;25.37;31.91;93804.81;4527251;26;19928;-60
2024/04/16 10:05:12;;;;;;;;;;;;;;;25.33;31.80;93799.19;4513580;26;21484;-59
2024/04/16 10:07:14;;;;;;;;;;;;;;;25.36;31.63;93792.47;4519661;26;20278;-61
2024/04/16 10:09:19;;;;;;;;;;;;;;;25.34;30.21;93779.34;4484678;26;19956;-60
2024/04/16 10:11:21;;;;;;;;;;;;;;;25.32;30.50;93776.16;4534989;26;19947;-59
2024/04/16 10:13:33;;;;;;;;;;;;;;;25.40;31.58;93767.50;4530063;26;19999;-61
2024/04/16 10:15:35;;;;;;;;;;;;;;;25.41;31.27;93773.69;4533873;26;19928;-62
2024/04/16 10:17:52;;;;;;;;;;;;;;;25.46;31.20;93769.09;4532137;26;19937;-61
2024/04/16 10:19:54;;;;;;;;;;;;;;;25.48;28.80;93764.25;4526328;26;19963;-60
2024/04/16 10:21:59;;;;;;;;;;;;;;;25.54;28.25;93757.00;4529347;26;19935;-66
2024/04/16 10:24:01;;;;;;;;;;;;;;;25.68;28.31;93757.19;4530418;26;19935;-59
2024/04/16 10:26:04;;;;;;;;;;;;;;;25.82;28.01;93754.72;4524525;26;19928;-60
2024/04/16 10:28:06;;;;;;;;;;;;;;;25.88;27.84;93749.09;4531872;26;19992;-60
2024/04/16 10:30:11;;;;;;;;;;;;;;;26.01;27.92;93744.97;4521254;26;19935;-60
2024/04/16 10:32:12;;;;;;;;;;;;;;;26.14;27.65;93736.28;4531778;26;19928;-62
2024/04/16 10:34:21;;;;;;;;;;;;;;;26.25;27.44;93733.53;4518433;26;19940;-62
2024/04/16 10:36:23;;;;;;;;;;;;;;;26.22;27.19;93726.03;4526946;26;19929;-62
2024/04/16 10:38:24;;;;;;;;;;;;;;;26.00;27.42;93748.72;4525696;26;19940;-61